Time;durP1;ratioP1;P1;durP2;ratioP2;P2;SDS_P1;SDS_P2;PMS_P1;PMS_P2;Temp;Humidity;BMP_temperature;BMP_pressure;BME280_temperature;BME280_humidity;BME280_pressure;Samples;Min_cycle;Max_cycle;Signal;HPM_P1;HPM_P2
2023/01/30 00:02:02;;;;;;;18.90;10.83;;;2.50;99.10;;;2.08;61.95;95243.16;5017332;28;20485;-56
2023/01/30 00:04:29;;;;;;;19.20;10.83;;;2.50;98.60;;;2.05;63.10;95237.31;5017630;28;20449;-56
2023/01/30 00:06:57;;;;;;;17.57;10.63;;;2.40;99.00;;;2.02;63.22;95240.88;5016819;28;20489;-57
2023/01/30 00:09:24;;;;;;;17.07;10.47;;;2.40;99.20;;;2.01;63.16;95234.00;5017756;28;20449;-57
2023/01/30 00:11:51;;;;;;;20.60;11.07;;;2.40;98.90;;;1.98;63.07;95239.34;5016103;28;20592;-58
2023/01/30 00:14:18;;;;;;;18.43;10.47;;;2.40;99.40;;;1.94;63.33;95233.50;5017876;28;20475;-57
2023/01/30 00:16:46;;;;;;;18.10;10.93;;;2.30;99.10;;;1.93;63.86;95236.16;5014770;28;20516;-57
2023/01/30 00:19:14;;;;;;;18.87;11.60;;;2.30;99.30;;;1.89;63.19;95240.69;5017356;28;20494;-58
2023/01/30 00:21:42;;;;;;;18.63;10.43;;;2.30;99.40;;;1.88;63.10;95244.19;5020245;28;20901;-58
2023/01/30 00:24:09;;;;;;;18.90;11.70;;;2.20;99.40;;;1.88;63.03;95238.16;5017700;28;20456;-57
2023/01/30 00:26:36;;;;;;;14.67;9.30;;;2.30;99.40;;;1.83;63.80;95240.13;5014372;28;20479;-58
2023/01/30 00:29:04;;;;;;;19.20;10.93;;;2.20;99.20;;;1.77;63.01;95242.13;5016369;28;20906;-55
2023/01/30 00:31:31;;;;;;;17.30;9.47;;;2.10;99.10;;;1.70;63.58;95235.56;5017651;28;20530;-55
2023/01/30 00:33:58;;;;;;;16.63;9.80;;;2.10;99.20;;;1.64;62.43;95230.69;5015875;28;20472;-59
2023/01/30 00:36:27;;;;;;;18.87;9.93;;;2.00;99.00;;;1.59;62.97;95232.69;5016786;28;20538;-57
2023/01/30 00:38:56;;;;;;;16.87;9.57;;;2.00;99.20;;;1.56;63.56;95227.66;5015960;28;20457;-56
2023/01/30 00:47:03;;;;;;;18.97;10.23;;;1.90;99.30;;;1.55;64.71;95226.81;5016132;28;21305;-57
2023/01/30 00:47:08;;;;;;;15.13;8.73;;;1.90;99.40;;;1.53;63.91;95222.63;5010205;28;20456;-57
2023/01/30 00:49:35;;;;;;;19.70;9.63;;;1.90;99.60;;;1.53;64.89;95217.44;5013608;28;20473;-56
2023/01/30 00:52:05;;;;;;;14.67;8.80;;;1.90;99.70;;;1.55;64.56;95228.56;5014453;28;20478;-58
2023/01/30 00:54:32;;;;;;;23.13;11.13;;;1.90;99.90;;;1.56;64.02;95217.28;5015192;28;20450;-58
2023/01/30 00:56:59;;;;;;;15.80;9.40;;;1.90;99.70;;;1.57;64.36;95216.38;5019277;28;20496;-60
2023/01/30 00:59:27;;;;;;;20.40;10.10;;;1.90;99.70;;;1.56;64.97;95212.94;5012046;28;20979;-57
2023/01/30 01:01:54;;;;;;;13.27;8.37;;;1.90;99.70;;;1.55;64.47;95226.81;5018250;28;20464;-57
2023/01/30 01:04:21;;;;;;;17.90;10.03;;;1.90;99.70;;;1.55;64.41;95219.03;5015210;28;20536;-58
2023/01/30 01:06:48;;;;;;;18.20;9.90;;;1.90;99.60;;;1.55;63.68;95215.59;5012967;28;20970;-56
2023/01/30 01:09:17;;;;;;;16.10;9.67;;;1.90;99.70;;;1.57;64.58;95211.19;5014404;28;20859;-57
2023/01/30 01:11:45;;;;;;;12.40;8.03;;;1.90;99.70;;;1.57;64.89;95214.63;5017170;28;21443;-57
2023/01/30 01:14:12;;;;;;;21.30;10.33;;;1.90;99.80;;;1.55;63.49;95213.88;5017804;28;20462;-56
2023/01/30 01:16:39;;;;;;;22.97;10.63;;;1.90;99.60;;;1.56;64.66;95217.28;5020210;28;20576;-58
2023/01/30 01:19:07;;;;;;;16.43;8.93;;;1.90;99.60;;;1.52;64.01;95215.75;5021132;28;21016;-55
2023/01/30 01:21:34;;;;;;;19.50;9.70;;;1.90;99.70;;;1.57;64.73;95208.59;5018366;28;20573;-58
2023/01/30 01:24:01;;;;;;;14.97;9.70;;;1.90;99.70;;;1.59;64.25;95209.34;5017800;28;20465;-55
2023/01/30 01:26:30;;;;;;;16.40;9.73;;;1.90;99.90;;;1.61;65.02;95202.31;5017966;28;20487;-56
2023/01/30 01:28:57;;;;;;;15.40;9.57;;;1.90;99.90;;;1.62;63.89;95191.06;5020544;28;20973;-56
2023/01/30 01:31:25;;;;;;;19.47;10.90;;;2.00;99.80;;;1.64;64.06;95198.75;5019602;28;20472;-56
2023/01/30 01:33:52;;;;;;;18.00;9.70;;;2.00;99.80;;;1.65;64.51;95196.09;5018119;28;20583;-57
2023/01/30 01:36:19;;;;;;;17.50;9.30;;;2.00;99.90;;;1.69;64.20;95197.63;5018506;28;20472;-58
2023/01/30 01:38:46;;;;;;;14.90;8.50;;;2.00;99.80;;;1.70;63.62;95201.03;5020471;28;20724;-57
2023/01/30 01:41:13;;;;;;;20.40;10.57;;;2.00;99.60;;;1.73;63.57;95195.69;5017477;28;20472;-58
2023/01/30 01:44:02;;;;;;;15.30;9.20;;;2.00;99.60;;;1.74;63.31;95195.63;5018273;28;20994;-56
2023/01/30 01:46:31;;;;;;;14.80;7.80;;;2.10;99.50;;;1.74;64.46;95199.97;5015045;28;21523;-56
2023/01/30 01:48:59;;;;;;;24.00;9.97;;;2.10;99.50;;;1.72;64.01;95194.88;5019381;28;20974;-55
2023/01/30 01:51:29;;;;;;;14.57;8.80;;;2.10;99.50;;;1.71;63.88;95206.13;5017743;28;20477;-57
2023/01/30 01:54:06;;;;;;;14.40;9.07;;;2.10;99.50;;;1.70;64.00;95199.28;5018740;28;20539;-58
2023/01/30 01:56:34;;;;;;;20.13;9.77;;;2.00;99.30;;;1.65;63.73;95196.09;5018403;28;20481;-57
2023/01/30 01:59:05;;;;;;;17.77;8.67;;;2.00;99.20;;;1.63;63.15;95197.06;5013260;28;20981;-56
2023/01/30 02:01:32;;;;;;;13.13;8.00;;;2.00;99.40;;;1.59;64.45;95202.41;5022720;28;20851;-57
2023/01/30 02:04:03;;;;;;;15.40;7.83;;;2.00;99.50;;;1.54;62.91;95199.22;5017103;28;20946;-57
2023/01/30 02:06:30;;;;;;;16.10;9.10;;;1.90;99.40;;;1.48;63.96;95199.53;5022405;28;20483;-57
2023/01/30 02:08:59;;;;;;;17.90;8.93;;;1.90;99.50;;;1.48;64.93;95199.53;5016740;28;20463;-55
2023/01/30 02:11:30;;;;;;;19.93;9.60;;;1.90;99.70;;;1.50;64.74;95204.63;5020379;28;20495;-56
2023/01/30 02:13:57;;;;;;;19.33;8.97;;;1.90;99.80;;;1.53;64.21;95204.47;5013584;28;20445;-56
2023/01/30 02:16:26;;;;;;;18.30;9.40;;;1.90;99.90;;;1.56;64.97;95196.53;5018410;28;20475;-56
2023/01/30 02:18:53;;;;;;;16.73;8.83;;;1.90;99.90;;;1.60;64.42;95188.53;5017028;28;20473;-57
2023/01/30 02:21:49;;;;;;;17.43;9.57;;;1.90;99.90;;;1.63;64.80;95190.16;5019010;28;20476;-56
2023/01/30 02:25:08;;;;;;;17.80;9.80;;;2.00;99.90;;;1.66;63.82;95187.41;5010089;28;20465;-58
2023/01/30 02:27:56;;;;;;;17.10;9.67;;;2.00;99.70;;;1.66;63.32;95195.19;5014553;28;20508;-55
2023/01/30 02:31:17;;;;;;;13.87;7.97;;;2.00;99.50;;;1.67;64.32;95198.59;5017246;28;20473;-57
2023/01/30 02:33:50;;;;;;;15.10;8.20;;;2.00;99.70;;;1.68;64.18;95189.91;4951657;28;20471;-56
2023/01/30 02:36:23;;;;;;;15.87;8.70;;;2.00;99.70;;;1.71;63.41;95193.19;4950779;28;20476;-58
2023/01/30 02:38:55;;;;;;;15.17;9.70;;;2.00;99.70;;;1.75;64.09;95196.44;4987371;28;20488;-58
2023/01/30 02:41:28;;;;;;;16.33;8.83;;;2.10;99.70;;;1.76;63.68;95188.59;5018938;28;20462;-57
2023/01/30 02:44:00;;;;;;;13.07;8.83;;;2.10;99.80;;;1.78;64.58;95181.59;5015117;28;20460;-55
2023/01/30 02:46:39;;;;;;;13.20;8.20;;;2.10;99.60;;;1.82;63.89;95186.63;5016720;28;20483;-57
2023/01/30 02:49:09;;;;;;;16.13;8.50;;;2.10;99.40;;;1.83;63.17;95180.50;5014745;28;20452;-57
2023/01/30 02:51:38;;;;;;;9.50;7.17;;;2.20;99.50;;;1.85;63.18;95181.28;5020142;28;20610;-55
2023/01/30 02:54:06;;;;;;;14.03;8.20;;;2.20;99.30;;;1.85;63.63;95176.91;5016190;28;20472;-55
2023/01/30 02:56:47;;;;;;;10.40;7.40;;;2.20;99.20;;;1.84;62.45;95185.59;5017204;28;20509;-57
2023/01/30 02:59:15;;;;;;;14.33;7.77;;;2.20;99.10;;;1.84;62.77;95182.19;5013206;28;20453;-57
2023/01/30 03:02:13;;;;;;;13.80;7.97;;;2.20;99.10;;;1.83;62.97;95185.69;5016185;28;20858;-56
2023/01/30 03:04:57;;;;;;;14.47;7.93;;;2.20;98.90;;;1.84;63.69;95184.78;5006349;28;20558;-57
2023/01/30 03:07:33;;;;;;;17.87;8.57;;;2.20;99.00;;;1.84;63.59;95182.19;5012435;28;20493;-58
2023/01/30 03:10:06;;;;;;;15.93;7.90;;;2.20;99.10;;;1.85;62.63;95183.88;5011940;28;20933;-56
2023/01/30 03:12:41;;;;;;;12.37;7.23;;;2.20;98.90;;;1.87;63.06;95179.44;5010990;28;20457;-56
2023/01/30 03:15:12;;;;;;;16.63;9.07;;;2.20;99.10;;;1.87;62.96;95171.66;5016248;28;20448;-56
2023/01/30 03:17:44;;;;;;;14.20;8.73;;;2.20;99.20;;;1.86;63.59;95172.56;5013158;28;20489;-57
2023/01/30 03:20:12;;;;;;;12.23;7.83;;;2.20;99.30;;;1.87;63.19;95163.88;5014271;28;20506;-57
2023/01/30 03:22:40;;;;;;;13.57;7.83;;;2.20;99.30;;;1.88;63.76;95158.59;5016147;28;20534;-55
2023/01/30 03:25:08;;;;;;;14.33;8.00;;;2.20;99.20;;;1.90;63.06;95158.53;5014531;28;20484;-57
2023/01/30 03:27:35;;;;;;;12.53;6.97;;;2.20;99.10;;;1.90;63.14;95155.91;5013268;28;20464;-56
2023/01/30 03:30:03;;;;;;;13.37;8.50;;;2.20;98.80;;;1.87;63.64;95154.31;5011200;28;20444;-58
2023/01/30 03:32:30;;;;;;;15.93;8.30;;;2.20;98.80;;;1.88;62.77;95147.41;5011094;28;21166;-55
2023/01/30 03:34:59;;;;;;;14.70;9.03;;;2.20;98.90;;;1.87;63.45;95143.94;5019354;28;20449;-55
2023/01/30 03:37:26;;;;;;;16.93;8.27;;;2.20;98.80;;;1.86;62.13;95141.44;5015472;28;20495;-56
2023/01/30 03:39:53;;;;;;;15.40;8.23;;;2.20;98.80;;;1.85;62.63;95144.97;5014830;28;20461;-58
2023/01/30 03:42:20;;;;;;;11.23;7.93;;;2.20;98.90;;;1.84;62.75;95145.88;5009971;28;20467;-57
2023/01/30 03:44:48;;;;;;;10.60;7.77;;;2.20;98.90;;;1.83;63.24;95146.78;5015026;28;20505;-55
2023/01/30 03:47:15;;;;;;;15.77;8.60;;;2.10;99.00;;;1.81;62.55;95133.88;5014677;28;20531;-58
2023/01/30 03:49:42;;;;;;;13.13;8.00;;;2.10;98.90;;;1.77;61.90;95137.59;5012420;28;20464;-58
2023/01/30 03:52:11;;;;;;;11.17;7.43;;;2.10;98.60;;;1.81;62.80;95133.88;5013464;28;20488;-55
2023/01/30 03:54:38;;;;;;;15.90;7.80;;;2.20;98.80;;;1.78;61.97;95134.91;5004110;28;20453;-57
2023/01/30 03:57:05;;;;;;;16.40;8.47;;;2.10;98.60;;;1.76;62.39;95130.72;5006599;28;20481;-57
2023/01/30 03:59:33;;;;;;;13.77;8.73;;;2.10;98.40;;;1.70;62.36;95126.66;5008707;28;20469;-58
2023/01/30 04:02:00;;;;;;;14.60;8.90;;;2.10;98.60;;;1.71;63.57;95130.94;5003580;28;20488;-55
2023/01/30 04:04:27;;;;;;;14.97;7.23;;;2.10;98.60;;;1.71;63.13;95132.72;5010414;28;20572;-57
2023/01/30 04:06:54;;;;;;;16.20;8.53;;;2.10;98.70;;;1.70;63.17;95138.81;5010343;28;20478;-55
2023/01/30 04:09:23;;;;;;;10.97;8.07;;;2.10;98.80;;;1.70;62.55;95133.63;5006736;28;20835;-57
2023/01/30 04:11:50;;;;;;;13.70;8.03;;;2.10;98.80;;;1.68;62.82;95133.69;5003903;28;20494;-58
2023/01/30 04:14:17;;;;;;;12.23;7.43;;;2.10;98.80;;;1.68;63.32;95127.69;5007324;28;20466;-56
2023/01/30 04:16:45;;;;;;;9.97;6.87;;;2.00;98.80;;;1.66;63.57;95125.19;5006618;28;21005;-57
2023/01/30 04:19:12;;;;;;;15.50;7.90;;;2.00;98.80;;;1.64;63.45;95132.16;5004547;28;20499;-58
2023/01/30 04:21:40;;;;;;;15.03;8.60;;;2.00;98.80;;;1.64;63.33;95123.56;5011415;28;20476;-55
2023/01/30 04:24:07;;;;;;;11.60;6.90;;;2.00;98.80;;;1.63;63.26;95127.94;5003362;28;20885;-57
2023/01/30 04:26:36;;;;;;;15.37;8.70;;;2.00;98.90;;;1.61;63.56;95127.16;5010403;28;20481;-58
2023/01/30 04:29:03;;;;;;;13.43;8.30;;;2.00;99.00;;;1.66;64.09;95126.91;5008891;28;20819;-56
2023/01/30 04:31:30;;;;;;;17.10;9.60;;;2.00;99.20;;;1.67;62.10;95126.84;5008380;28;21012;-57
2023/01/30 04:33:58;;;;;;;14.80;8.40;;;2.00;98.90;;;1.66;62.74;95122.59;4998380;28;20465;-56
2023/01/30 04:36:25;;;;;;;11.40;8.33;;;2.00;98.90;;;1.65;63.43;95122.66;5005821;28;20484;-57
2023/01/30 04:38:52;;;;;;;15.10;8.33;;;2.00;99.20;;;1.64;63.81;95124.41;5004221;28;20500;-55
2023/01/30 04:41:19;;;;;;;13.37;8.63;;;2.00;99.10;;;1.64;63.91;95120.97;5003092;28;20484;-56
2023/01/30 04:43:48;;;;;;;12.90;8.90;;;2.00;99.20;;;1.65;63.54;95123.50;5005548;28;20477;-58
2023/01/30 04:46:15;;;;;;;14.87;7.93;;;2.00;99.50;;;1.67;63.55;95121.66;5004694;28;20506;-56
2023/01/30 04:48:43;;;;;;;24.00;8.53;;;2.00;99.20;;;1.68;63.76;95120.75;5012019;28;20463;-57
2023/01/30 04:51:10;;;;;;;14.43;8.73;;;2.00;99.20;;;1.66;62.89;95117.41;5012164;28;20474;-57
2023/01/30 04:53:37;;;;;;;18.27;8.83;;;2.00;99.20;;;1.69;63.50;95118.97;5019934;28;20463;-58
2023/01/30 04:56:06;;;;;;;19.90;9.73;;;2.10;99.30;;;1.68;62.77;95110.38;5003516;28;20933;-55
2023/01/30 04:58:33;;;;;;;21.70;10.40;;;2.00;99.00;;;1.68;62.85;95102.59;5007228;28;20501;-57
2023/01/30 05:01:15;;;;;;;21.80;10.93;;;2.00;99.10;;;1.70;63.11;95105.94;5013919;28;20504;-57
2023/01/30 05:03:42;;;;;;;18.43;10.80;;;2.00;99.20;;;1.71;64.75;95107.63;5010359;28;20448;-58
2023/01/30 05:06:10;;;;;;;29.97;13.63;;;2.00;99.70;;;1.73;65.68;95105.78;5017725;28;20544;-56
2023/01/30 05:08:37;;;;;;;23.93;12.33;;;2.10;99.90;;;1.78;66.00;95103.78;5017201;28;20461;-58
2023/01/30 05:11:04;;;;;;;21.97;10.73;;;2.10;99.90;;;1.85;64.25;95108.66;5014081;28;20484;-55
2023/01/30 05:13:32;;;;;;;25.40;10.90;;;2.10;99.90;;;1.85;64.93;95100.88;5015433;28;20459;-57
2023/01/30 05:15:59;;;;;;;20.23;10.77;;;2.20;99.90;;;1.86;63.75;95100.78;5016434;28;20538;-56
2023/01/30 05:18:28;;;;;;;22.10;10.97;;;2.20;99.90;;;1.86;63.61;95105.13;5015168;28;20499;-58
2023/01/30 05:20:55;;;;;;;19.83;10.73;;;2.20;99.80;;;1.85;64.34;95103.47;5012104;28;20560;-59
2023/01/30 05:23:22;;;;;;;17.83;10.77;;;2.20;99.80;;;1.84;64.78;95106.97;5010025;28;20450;-55
2023/01/30 05:25:49;;;;;;;34.60;14.00;;;2.20;99.90;;;1.84;64.94;95102.63;5008656;28;20547;-57
2023/01/30 05:28:17;;;;;;;20.70;10.93;;;2.20;99.90;;;1.85;65.77;95106.88;5011617;28;20461;-59
2023/01/30 05:30:44;;;;;;;17.73;10.80;;;2.20;99.90;;;1.86;65.46;95111.16;5011035;28;20481;-56
2023/01/30 05:33:11;;;;;;;19.50;11.33;;;2.20;99.90;;;1.87;65.32;95115.41;5012756;28;20985;-58
2023/01/30 05:35:40;;;;;;;23.27;11.70;;;2.20;99.90;;;1.88;65.30;95105.91;5011399;28;20855;-57
2023/01/30 05:38:07;;;;;;;23.73;11.90;;;2.20;99.90;;;1.87;64.93;95114.59;5010850;28;20497;-58
2023/01/30 05:40:34;;;;;;;22.93;12.67;;;2.20;99.90;;;1.85;64.94;95109.47;5017486;28;21017;-59
2023/01/30 05:43:01;;;;;;;22.37;12.43;;;2.20;99.90;;;1.82;64.28;95114.00;5011255;28;20457;-56
2023/01/30 05:45:29;;;;;;;20.17;11.50;;;2.20;99.90;;;1.81;64.38;95115.75;5011015;28;20474;-56
2023/01/30 05:47:56;;;;;;;20.90;11.87;;;2.20;99.80;;;1.82;64.39;95114.00;5000898;28;20461;-55
2023/01/30 05:50:23;;;;;;;25.87;13.30;;;2.20;99.90;;;1.79;63.75;95112.41;5003381;28;20482;-57
2023/01/30 05:52:52;;;;;;;23.87;12.80;;;2.10;99.90;;;1.76;65.16;95115.16;5015643;28;20541;-56
2023/01/30 05:55:19;;;;;;;26.83;14.03;;;2.10;99.90;;;1.74;64.83;95117.00;5014558;28;20477;-58
2023/01/30 05:57:47;;;;;;;21.63;12.30;;;2.10;99.90;;;1.71;64.06;95117.97;5015344;28;20476;-57
2023/01/30 06:00:15;;;;;;;27.20;14.30;;;2.10;99.90;;;1.70;65.03;95120.66;5019708;28;20477;-57
2023/01/30 06:02:43;;;;;;;24.97;14.17;;;2.10;99.90;;;1.70;64.49;95121.47;5016781;28;20525;-56
2023/01/30 06:05:10;;;;;;;21.77;13.33;;;2.10;99.90;;;1.73;64.78;95126.50;5019608;28;20461;-57
2023/01/30 06:07:37;;;;;;;28.60;14.47;;;2.10;99.90;;;1.74;nan;95124.78;5017901;28;20454;-57
2023/01/30 06:10:07;;;;;;;31.83;15.97;;;2.10;99.90;;;1.72;64.99;95124.84;5018311;28;20465;-56
2023/01/30 06:12:34;;;;;;;27.73;13.87;;;2.10;99.90;;;1.75;64.26;95123.84;5016692;28;20997;-57
2023/01/30 06:15:01;;;;;;;28.43;15.03;;;2.10;99.90;;;1.74;64.66;95127.38;5019620;28;20811;-56
2023/01/30 06:17:29;;;;;;;25.43;14.50;;;2.10;99.90;;;1.73;63.85;95117.91;5017725;28;20449;-56
2023/01/30 06:19:56;;;;;;;23.73;13.70;;;2.10;99.90;;;1.71;65.15;95111.97;5017010;28;20492;-57
2023/01/30 06:22:23;;;;;;;23.67;13.03;;;2.10;99.90;;;1.67;65.26;95113.88;5018342;28;20450;-57
2023/01/30 06:24:50;;;;;;;26.17;14.00;;;2.00;99.90;;;1.69;64.56;95114.66;5016668;28;20534;-57
2023/01/30 06:27:19;;;;;;;30.97;15.70;;;2.00;99.90;;;1.68;64.68;95114.72;5018165;28;20473;-57
2023/01/30 06:29:46;;;;;;;21.30;12.83;;;2.00;99.90;;;1.68;63.41;95109.53;5019646;28;20456;-54
2023/01/30 06:32:14;;;;;;;29.77;14.83;;;2.00;99.70;;;1.67;64.14;95119.06;5019100;28;21109;-56
2023/01/30 06:34:41;;;;;;;30.43;14.93;;;2.00;99.70;;;1.66;64.13;95114.81;5015834;28;20469;-56
2023/01/30 06:37:08;;;;;;;27.77;14.60;;;2.00;99.70;;;1.67;64.94;95120.81;5020038;28;20473;-57
2023/01/30 06:39:36;;;;;;;23.03;12.63;;;2.00;99.80;;;1.66;64.05;95120.00;5018419;28;21086;-56
2023/01/30 06:42:03;;;;;;;26.97;14.50;;;2.00;99.90;;;1.65;65.04;95118.31;5019382;28;20469;-56
2023/01/30 06:44:32;;;;;;;24.77;13.00;;;2.00;99.90;;;1.64;63.96;95116.63;5015339;28;20445;-57
2023/01/30 06:46:59;;;;;;;25.87;14.13;;;2.00;99.90;;;1.64;64.22;95120.97;5019453;28;20530;-57
2023/01/30 06:49:26;;;;;;;25.00;14.10;;;2.00;99.90;;;1.62;64.31;95113.28;5019922;28;20872;-55
2023/01/30 06:51:53;;;;;;;29.90;15.10;;;2.00;99.90;;;1.65;64.07;95123.50;5019495;28;20970;-56
2023/01/30 06:54:21;;;;;;;28.40;14.90;;;2.00;99.90;;;1.65;64.64;95118.31;5017195;28;20970;-58
2023/01/30 06:56:48;;;;;;;24.70;13.30;;;2.00;99.90;;;1.67;64.83;95119.06;5019081;28;20479;-56
2023/01/30 06:59:15;;;;;;;26.03;12.90;;;2.00;99.90;;;1.67;64.56;95124.25;5016904;28;20555;-57
2023/01/30 07:01:44;;;;;;;24.50;13.23;;;2.00;99.70;;;1.68;64.02;95120.75;5017790;28;20484;-56
2023/01/30 07:04:11;;;;;;;29.50;14.70;;;2.00;99.90;;;1.73;65.96;95126.50;5018585;28;20492;-58
2023/01/30 07:06:38;;;;;;;21.57;11.67;;;2.10;99.90;;;1.81;67.28;95130.47;5018057;28;20472;-55
2023/01/30 07:09:06;;;;;;;22.80;12.97;;;2.10;99.90;;;1.87;65.35;95122.38;5018926;28;20965;-58
2023/01/30 07:11:33;;;;;;;25.03;13.10;;;2.20;99.90;;;1.87;64.68;95133.56;5016398;28;20469;-57
2023/01/30 07:14:00;;;;;;;29.40;13.57;;;2.20;99.90;;;1.84;64.27;95135.50;5018460;28;20467;-57
2023/01/30 07:16:29;;;;;;;22.30;11.57;;;2.10;99.90;;;1.83;64.01;95133.81;5016688;28;21005;-57
2023/01/30 07:18:58;;;;;;;21.33;12.43;;;2.20;99.90;;;1.84;64.05;95132.91;5014268;28;20496;-57
2023/01/30 07:21:26;;;;;;;25.27;12.70;;;2.20;99.60;;;1.83;64.16;95128.63;5016020;28;20520;-57
2023/01/30 07:23:53;;;;;;;20.77;11.20;;;2.20;99.60;;;1.84;63.34;95127.72;5014151;28;20453;-55
2023/01/30 07:26:20;;;;;;;18.43;10.40;;;2.20;99.20;;;1.84;64.02;95130.31;5018569;28;20476;-59
2023/01/30 07:28:47;;;;;;;27.33;12.50;;;2.20;99.40;;;1.85;62.99;95129.41;5015996;28;20809;-56
2023/01/30 07:31:15;;;;;;;16.23;9.33;;;2.20;99.30;;;1.86;62.65;95131.06;5018444;28;20482;-57
2023/01/30 07:33:42;;;;;;;19.23;10.40;;;2.20;98.50;;;1.87;62.73;95143.13;5016728;28;20456;-54
2023/01/30 07:36:11;;;;;;;22.90;11.30;;;2.20;98.90;;;1.85;62.20;95144.97;5019321;28;20481;-58
2023/01/30 07:38:38;;;;;;;20.97;11.70;;;2.20;98.80;;;1.87;63.47;95141.34;5017336;28;20496;-56
2023/01/30 07:41:06;;;;;;;22.27;11.90;;;2.20;99.10;;;1.87;62.34;95143.13;5015742;28;21022;-58
2023/01/30 07:43:33;;;;;;;21.90;10.93;;;2.20;98.80;;;1.85;63.56;95150.16;5015254;28;20862;-56
2023/01/30 07:46:01;;;;;;;22.27;11.67;;;2.20;99.10;;;1.84;63.63;95154.47;5016299;28;20469;-58
2023/01/30 07:48:28;;;;;;;21.67;12.07;;;2.20;99.30;;;1.81;63.58;95148.63;5016613;28;20461;-57
2023/01/30 07:50:56;;;;;;;21.27;12.10;;;2.10;99.30;;;1.79;64.17;95144.34;5017567;28;20532;-57
2023/01/30 07:53:25;;;;;;;20.77;10.60;;;2.10;99.30;;;1.81;63.69;95143.44;5018760;28;20501;-56
2023/01/30 07:55:52;;;;;;;23.70;12.07;;;2.10;99.30;;;1.82;64.31;95139.94;5014141;28;20491;-57
2023/01/30 07:58:19;;;;;;;20.40;11.10;;;2.10;99.50;;;1.83;63.89;95126.03;5010662;28;20461;-57
2023/01/30 08:00:47;;;;;;;20.40;10.30;;;2.20;99.50;;;1.85;63.64;95132.00;5013361;28;20487;-57
2023/01/30 08:03:14;;;;;;;21.33;10.57;;;2.20;99.40;;;1.87;63.15;95128.38;5010416;28;20487;-57
2023/01/30 08:05:42;;;;;;;16.47;9.27;;;2.20;99.50;;;1.89;64.36;95121.38;5014440;28;20849;-57
2023/01/30 08:08:10;;;;;;;18.27;10.33;;;2.20;99.50;;;1.92;64.22;95122.94;5008613;28;20445;-57
2023/01/30 08:10:38;;;;;;;17.77;9.90;;;2.20;99.40;;;1.94;63.65;95119.38;5011712;28;20883;-56
2023/01/30 08:13:06;;;;;;;20.00;10.03;;;2.30;99.40;;;1.99;63.66;95121.72;5005845;28;20450;-58
2023/01/30 08:15:33;;;;;;;16.63;10.23;;;2.30;99.60;;;2.03;63.81;95112.88;5007692;28;21437;-55
2023/01/30 08:18:00;;;;;;;19.03;10.47;;;2.40;99.60;;;2.07;63.52;95114.34;5009587;28;20484;-57
2023/01/30 08:20:28;;;;;;;25.27;11.00;;;2.40;99.40;;;2.10;63.75;95109.00;5009748;28;20841;-57
2023/01/30 08:22:55;;;;;;;21.67;10.60;;;2.50;99.40;;;2.11;63.87;95105.50;5009361;28;20453;-58
2023/01/30 08:25:22;;;;;;;16.03;9.37;;;2.40;99.20;;;2.14;63.46;95094.13;5007777;28;20562;-55
2023/01/30 08:27:51;;;;;;;16.57;8.60;;;2.50;99.10;;;2.18;63.00;95098.22;5010679;28;20454;-57
2023/01/30 08:30:19;;;;;;;16.30;9.80;;;2.50;98.80;;;2.20;62.52;95098.13;5012624;28;20477;-57
2023/01/30 08:32:46;;;;;;;16.20;9.27;;;2.50;99.00;;;2.21;61.98;95090.25;5012325;28;20950;-57
2023/01/30 08:35:14;;;;;;;15.33;8.83;;;2.60;98.70;;;2.23;62.19;95087.59;5015910;28;20477;-56
2023/01/30 08:37:41;;;;;;;14.43;8.50;;;2.60;98.60;;;2.24;62.99;95086.66;5010461;28;20449;-57
2023/01/30 08:40:10;;;;;;;16.00;9.17;;;2.60;98.70;;;2.25;63.29;95096.97;5008722;28;20488;-55
2023/01/30 08:42:37;;;;;;;16.03;8.77;;;2.60;98.80;;;2.28;62.53;95080.41;5008594;28;20481;-57
2023/01/30 08:45:08;;;;;;;13.30;8.63;;;2.60;98.60;;;2.31;61.93;95090.63;5011919;28;20454;-58
2023/01/30 08:47:35;;;;;;;15.50;8.30;;;2.60;98.40;;;2.32;61.89;95090.53;5018140;28;20444;-57
2023/01/30 08:50:02;;;;;;;15.90;9.87;;;2.60;98.30;;;2.34;61.81;95087.84;5015314;28;20914;-57
2023/01/30 08:52:30;;;;;;;12.67;8.40;;;2.70;98.30;;;2.35;62.12;95081.72;5017783;28;20496;-56
2023/01/30 08:54:57;;;;;;;16.20;9.30;;;2.70;98.30;;;2.36;62.74;95087.75;5016425;28;20461;-56
2023/01/30 08:57:24;;;;;;;19.50;9.87;;;2.70;98.40;;;2.41;62.29;95080.56;5017010;28;20449;-55
2023/01/30 08:59:51;;;;;;;16.17;8.70;;;2.70;98.40;;;2.42;62.12;95072.69;5014936;28;20492;-56
2023/01/30 09:02:20;;;;;;;13.70;8.70;;;2.70;98.30;;;2.45;62.02;95069.09;5016220;28;20582;-57
2023/01/30 09:04:48;;;;;;;15.87;8.27;;;2.80;98.00;;;2.44;62.14;95070.81;5014963;28;20457;-56
2023/01/30 09:07:15;;;;;;;11.30;7.40;;;2.80;98.10;;;2.42;61.57;95067.50;5016502;28;20863;-57
2023/01/30 09:09:42;;;;;;;13.07;8.60;;;2.70;98.20;;;2.43;62.27;95068.31;5015182;28;20906;-56
2023/01/30 09:12:09;;;;;;;12.63;8.27;;;2.80;98.10;;;2.37;62.08;95079.91;5014074;28;20939;-55
2023/01/30 09:14:37;;;;;;;11.97;7.13;;;2.70;98.10;;;2.36;61.38;95075.63;5017419;28;21091;-55
2023/01/30 09:17:04;;;;;;;16.67;8.27;;;2.70;97.40;;;2.36;61.64;95065.22;5015760;28;20477;-55
2023/01/30 09:19:34;;;;;;;11.30;7.57;;;2.70;97.90;;;2.35;61.37;95071.34;5017167;28;20497;-57
2023/01/30 09:22:02;;;;;;;11.60;7.77;;;2.70;97.80;;;2.35;61.83;95066.16;5017561;28;20847;-57
2023/01/30 09:24:29;;;;;;;11.90;7.50;;;2.70;97.70;;;2.31;61.25;95060.28;5012478;28;20441;-57
2023/01/30 09:26:57;;;;;;;12.37;8.23;;;2.70;97.80;;;2.28;61.61;95059.63;5013328;28;20469;-56
2023/01/30 09:29:25;;;;;;;10.77;7.17;;;2.60;97.90;;;2.24;61.11;95061.53;5014963;28;21003;-54
2023/01/30 09:31:52;;;;;;;14.60;7.67;;;2.60;97.80;;;2.24;61.86;95071.09;5014448;28;20496;-57
2023/01/30 09:34:19;;;;;;;16.80;9.57;;;2.60;98.00;;;2.25;61.46;95059.81;5014936;28;20992;-57
2023/01/30 09:36:48;;;;;;;18.13;9.23;;;2.60;98.10;;;2.25;61.41;95071.00;5018749;28;20469;-56
2023/01/30 09:39:15;;;;;;;13.27;8.20;;;2.60;97.80;;;2.26;62.31;95056.28;5021087;28;20534;-57
2023/01/30 09:41:58;;;;;;;10.83;6.83;;;2.60;98.00;;;2.25;61.55;95055.44;5017608;28;20584;-57
2023/01/30 09:44:53;;;;;;;14.53;8.80;;;2.60;97.90;;;2.26;62.11;95046.75;5019112;28;20464;-57
2023/01/30 09:47:26;;;;;;;18.33;9.77;;;2.60;98.10;;;2.27;62.21;95048.41;5020144;28;20447;-57
2023/01/30 09:49:59;;;;;;;15.73;8.63;;;2.60;98.10;;;2.28;62.12;95049.25;5016223;28;20472;-58
2023/01/30 09:52:35;;;;;;;16.10;8.50;;;2.60;98.00;;;2.27;61.58;95045.81;5014517;28;20465;-59
2023/01/30 09:55:14;;;;;;;14.43;8.93;;;2.60;97.80;;;2.25;61.16;95039.03;5018968;28;20437;-57
2023/01/30 09:57:41;;;;;;;15.40;8.37;;;2.60;97.80;;;2.24;61.03;95039.97;5019779;28;20980;-55
2023/01/30 10:00:13;;;;;;;14.53;8.27;;;2.60;97.70;;;2.24;61.92;95043.38;5018894;28;20496;-56
2023/01/30 10:02:47;;;;;;;16.67;8.67;;;2.60;97.60;;;2.26;61.00;95032.91;5016104;28;20452;-56
2023/01/30 10:05:15;;;;;;;16.43;8.30;;;2.60;97.60;;;2.24;60.65;95030.41;5015910;28;20857;-58
2023/01/30 10:08:06;;;;;;;25.37;9.83;;;2.60;97.30;;;2.26;60.91;95014.75;5020032;28;20448;-56
2023/01/30 10:10:48;;;;;;;14.80;8.23;;;2.60;97.20;;;2.27;60.56;95014.66;5013552;28;21054;-58
2023/01/30 10:13:35;;;;;;;15.33;8.90;;;2.60;97.00;;;2.29;60.16;95004.19;5018736;28;20481;-57
2023/01/30 10:16:08;;;;;;;15.83;9.17;;;2.60;97.00;;;2.31;59.96;95007.56;5014325;28;21023;-57
2023/01/30 10:18:52;;;;;;;21.73;11.50;;;2.70;97.00;;;2.31;60.69;94998.00;5020096;28;20453;-56
2023/01/30 10:21:27;;;;;;;38.37;12.50;;;2.70;96.70;;;2.29;60.22;94994.69;5019673;28;20579;-56
2023/01/30 10:24:18;;;;;;;16.67;9.30;;;2.70;97.00;;;2.34;60.44;94991.81;5016780;28;20457;-57
2023/01/30 10:26:45;;;;;;;22.83;11.03;;;2.70;96.80;;;2.35;59.93;94983.09;5012258;28;20486;-56
2023/01/30 10:29:16;;;;;;;24.40;11.23;;;2.70;96.60;;;2.35;60.69;94980.50;5013191;28;20878;-57
2023/01/30 10:31:46;;;;;;;19.00;10.93;;;2.70;96.90;;;2.37;59.46;94976.06;5012481;28;20533;-58
2023/01/30 10:34:16;;;;;;;27.90;14.80;;;2.70;96.50;;;2.35;59.54;94975.31;5021346;28;20455;-58
2023/01/30 10:36:47;;;;;;;20.73;11.00;;;2.70;96.60;;;2.34;59.71;94973.66;5017349;28;20540;-57